KCDR

Chadron Municipal Airport

Chadron, Nebraska, USA
METAR KCDR 191153Z AUTO 32018G39KT 10SM -RA BKN048 OVC060 08/00 A2978 RMK AO2 PK WND 31039/1145 RAE07B47 SLP101 P0000 60000 T00830000 10083 20000 51016
Observed Flight Rules
Dec-19 @ 11:53 UTC (16 minutes ago) Visual Flight Rules
Wind Visibility Clouds Conditions
320° at 18 knots
 Gusting to 39 knots
10 miles
  • Broken at 4,800' AGL
  • Overcast at 6,000' AGL
  • Light Rain
Temperatures Readings Precipitation
Current 8°C / 46°F
Dewpoint 0°C / 32°F
Humidity 57%
Altimeter 29.78" Hg
Pressure 1010.1 hPa
Elevation 1010
Current Rain 0.005
METAR KCDR 191153Z AUTO 32018G39KT 10SM -RA BKN048 OVC060 08/00 A2978 RMK AO2 PK WND 31039/1145 RAE07B47 SLP101 P0000 60000 T00830000 10083 20000 51016
Observed Flight Rules
Dec-19 @ 11:53 UTC
(16 minutes ago)
VFR
Wind Visibility
320° at 18 knots
 Gusting to 39 knots
10 miles
Clouds
  • Broken at 4,800' AGL
  • Overcast at 6,000' AGL
Conditions
  • Light Rain
Temperature Dewpoint
8°C / 46°F 0°C / 32°F
Humidity Altimeter Pressure
57% 29.78" Hg 1010.1 hPa
Current Rain
0.005